Time;durP1;ratioP1;P1;durP2;ratioP2;P2;SDS_P1;SDS_P2;PMS_P1;PMS_P2;Temp;Humidity;BMP_temperature;BMP_pressure;BME280_temperature;BME280_humidity;BME280_pressure;Samples;Min_cycle;Max_cycle;Signal;HPM_P1;HPM_P2
2021/08/17 00:08:10;;;;;;;4.40;3.93;;;;;;;18.38;69.94;98626.67;531779;1088;116356;-60
2021/08/17 00:18:16;;;;;;;7.23;4.15;;;;;;;18.27;69.50;98632.36;532575;1089;116770;-60
2021/08/17 00:28:23;;;;;;;8.20;3.30;;;;;;;18.20;68.86;98641.03;532510;1089;116925;-61
2021/08/17 00:38:29;;;;;;;2.43;2.20;;;;;;;18.05;68.76;98648.03;531767;1089;116814;-61
2021/08/17 00:48:37;;;;;;;6.00;3.27;;;;;;;17.86;68.73;98643.90;532496;1090;116116;-61
2021/08/17 00:58:44;;;;;;;4.07;3.00;;;;;;;17.62;69.02;98678.28;531750;1088;116208;-61
2021/08/17 01:08:50;;;;;;;5.30;3.33;;;;;;;17.36;69.99;98687.21;532576;1088;116425;-60
2021/08/17 01:18:57;;;;;;;4.77;2.90;;;;;;;17.18;70.06;98695.31;532597;1088;116942;-61
2021/08/17 01:29:04;;;;;;;8.90;3.27;;;;;;;17.02;70.37;98697.95;531882;1089;116639;-61
2021/08/17 01:39:10;;;;;;;3.33;3.03;;;;;;;17.02;70.46;98701.41;532457;1090;115881;-60
2021/08/17 01:49:18;;;;;;;4.20;3.23;;;;;;;16.99;70.11;98711.50;532587;1088;117698;-61
2021/08/17 01:59:24;;;;;;;5.50;3.30;;;;;;;16.90;70.32;98684.11;519424;1088;117630;-60
2021/08/17 02:09:31;;;;;;;6.90;3.53;;;;;;;16.73;70.22;98707.94;518269;1089;118332;-65
2021/08/17 02:19:37;;;;;;;5.00;3.47;;;;;;;16.60;70.20;98687.16;531878;1088;117525;-60
2021/08/17 02:29:44;;;;;;;3.17;2.47;;;;;;;16.45;69.80;98668.42;532545;1089;117068;-61
2021/08/17 02:39:51;;;;;;;5.87;2.53;;;;;;;16.25;69.44;98651.91;517430;1090;116791;-60
2021/08/17 02:49:57;;;;;;;3.70;2.73;;;;;;;16.08;69.32;98638.60;525508;1089;116807;-61
2021/08/17 03:00:06;;;;;;;5.27;3.30;;;;;;;15.97;69.35;98666.16;529892;1088;117936;-61
2021/08/17 03:10:13;;;;;;;2.90;2.60;;;;;;;15.85;69.34;98663.91;532295;1089;116793;-60
2021/08/17 03:20:20;;;;;;;4.00;2.33;;;;;;;15.69;69.77;98705.13;531831;1090;118540;-61
2021/08/17 03:30:27;;;;;;;3.38;2.20;;;;;;;15.51;69.93;98713.09;532524;1088;116472;-61
2021/08/17 03:40:34;;;;;;;2.07;1.60;;;;;;;15.28;69.99;98734.70;531816;1088;116609;-59
2021/08/17 03:50:40;;;;;;;1.80;1.30;;;;;;;15.12;70.22;98748.57;532550;1088;117823;-60
2021/08/17 04:00:47;;;;;;;2.53;1.37;;;;;;;14.97;69.90;98764.13;532559;1089;116446;-60
2021/08/17 04:10:53;;;;;;;1.90;1.50;;;;;;;14.88;70.75;98776.38;531533;1088;117156;-61
2021/08/17 04:21:00;;;;;;;1.83;1.50;;;;;;;14.82;70.88;98798.94;532540;1088;117261;-60
2021/08/17 04:31:06;;;;;;;3.00;2.37;;;;;;;14.85;70.81;98824.26;532543;1088;116788;-60
2021/08/17 04:41:13;;;;;;;3.50;2.00;;;;;;;14.87;70.95;98821.48;531742;1088;116514;-60
2021/08/17 04:51:19;;;;;;;3.90;2.70;;;;;;;14.99;70.93;98844.92;532542;1089;117224;-61
2021/08/17 05:01:27;;;;;;;5.37;2.43;;;;;;;15.02;70.30;98858.86;532344;1088;117491;-61
2021/08/17 05:11:34;;;;;;;3.47;2.80;;;;;;;15.45;70.22;98867.14;532442;1088;116547;-61
2021/08/17 05:21:40;;;;;;;6.23;3.23;;;;;;;16.93;68.37;98882.67;532500;1088;116625;-61
2021/08/17 05:31:46;;;;;;;4.23;2.23;;;;;;;16.23;67.04;98901.06;531833;1089;116880;-60
2021/08/17 05:41:53;;;;;;;5.33;2.93;;;;;;;16.36;67.28;98908.60;532540;1089;117003;-61
2021/08/17 05:51:59;;;;;;;4.17;2.50;;;;;;;16.50;66.45;98891.33;532592;1088;117637;-62
2021/08/17 06:02:06;;;;;;;2.73;1.73;;;;;;;16.02;65.71;98896.05;531841;1089;117358;-62
2021/08/17 06:12:13;;;;;;;5.83;2.20;;;;;;;15.54;66.17;98898.83;532581;1089;116982;-60
2021/08/17 06:22:19;;;;;;;6.87;2.60;;;;;;;15.20;66.39;98909.98;532528;1088;116588;-60
2021/08/17 06:32:25;;;;;;;3.23;1.80;;;;;;;15.34;66.46;98921.90;531849;1090;116179;-60
2021/08/17 06:42:32;;;;;;;5.97;2.67;;;;;;;15.25;66.05;98934.19;532597;1089;116550;-60
2021/08/17 06:52:38;;;;;;;3.40;2.30;;;;;;;15.52;65.92;98943.13;531841;1090;116844;-61
2021/08/17 07:02:45;;;;;;;2.63;1.83;;;;;;;15.53;64.85;98951.91;532525;1088;117026;-60
2021/08/17 07:13:08;;;;;;;4.40;2.07;;;;;;;15.84;64.02;98943.65;532524;1089;116069;-59
2021/08/17 07:23:14;;;;;;;4.10;2.10;;;;;;;16.33;63.68;98947.80;531788;1089;116393;-57
2021/08/17 07:33:22;;;;;;;4.23;3.17;;;;;;;16.15;62.98;98939.85;532556;1088;117251;-62
2021/08/17 07:43:28;;;;;;;4.53;2.20;;;;;;;16.23;62.61;98938.14;532455;1088;116255;-67
2021/08/17 07:53:38;;;;;;;3.70;2.55;;;;;;;16.93;61.26;98938.36;528875;1089;117173;-67
2021/08/17 08:03:44;;;;;;;5.77;3.40;;;;;;;20.40;58.10;98941.14;532506;1088;116708;-60
2021/08/17 08:13:51;;;;;;;3.73;2.23;;;;;;;19.34;55.48;98941.53;531751;1089;116554;-60
2021/08/17 08:23:57;;;;;;;2.80;1.77;;;;;;;18.72;55.51;98960.54;532445;1089;116259;-64
2021/08/17 08:34:04;;;;;;;3.03;1.97;;;;;;;18.88;55.86;98964.20;532442;1089;118091;-58
2021/08/17 08:44:11;;;;;;;2.20;2.10;;;;;;;17.90;55.88;98979.84;531800;1089;117396;-60
2021/08/17 08:54:17;;;;;;;2.60;2.20;;;;;;;17.90;55.94;98978.00;532421;1089;116335;-58
2021/08/17 09:04:26;;;;;;;2.17;1.97;;;;;;;18.44;55.24;98981.30;532504;1088;116493;-63
2021/08/17 09:14:35;;;;;;;7.03;3.00;;;;;;;19.15;54.66;98996.78;532538;1088;116124;-59
2021/08/17 09:24:43;;;;;;;3.78;1.98;;;;;;;19.99;52.87;99012.37;532508;1089;117024;-58
2021/08/17 09:34:53;;;;;;;5.47;2.20;;;;;;;19.70;51.76;99021.77;531718;1089;116370;-59
2021/08/17 09:45:17;;;;;;;5.13;2.43;;;;;;;18.89;52.73;99035.83;532532;1089;117153;-59
2021/08/17 09:55:24;;;;;;;3.27;1.90;;;;;;;18.78;52.69;99030.03;532520;1089;116703;-63
2021/08/17 10:05:30;;;;;;;4.83;1.73;;;;;;;18.71;53.09;99059.11;531717;1088;117668;-58
2021/08/17 10:15:37;;;;;;;1.73;1.57;;;;;;;18.46;52.86;99059.04;532403;1089;116870;-60
2021/08/17 10:25:49;;;;;;;5.10;1.93;;;;;;;18.20;52.94;99068.79;531704;1090;117489;-59
2021/08/17 10:35:59;;;;;;;7.13;1.93;;;;;;;18.35;53.28;99054.88;532570;1088;116206;-58
2021/08/17 10:46:09;;;;;;;3.20;2.10;;;;;;;19.52;52.28;99058.45;532635;1089;117904;-58
2021/08/17 10:56:18;;;;;;;6.87;2.20;;;;;;;19.63;51.02;99057.24;531824;1088;116206;-59
2021/08/17 11:06:43;;;;;;;7.87;2.00;;;;;;;19.85;51.49;99059.17;526371;1088;116674;-59
2021/08/17 11:16:52;;;;;;;4.70;2.20;;;;;;;19.91;50.13;99054.14;531908;1089;116574;-59
2021/08/17 11:27:01;;;;;;;2.80;1.73;;;;;;;19.57;49.87;99064.92;532505;1089;116640;-59
2021/08/17 11:37:10;;;;;;;4.73;2.30;;;;;;;19.88;49.17;99064.15;525141;1089;116410;-63
2021/08/17 11:47:19;;;;;;;5.43;2.00;;;;;;;19.66;49.05;99072.88;531843;1089;151062;-58
2021/08/17 11:57:32;;;;;;;5.57;1.60;;;;;;;19.10;49.45;99077.11;532547;1089;117315;-57
2021/08/17 12:07:38;;;;;;;3.00;2.00;;;;;;;19.41;49.93;99087.08;531850;1089;116570;-58
2021/08/17 12:17:56;;;;;;;4.73;1.60;;;;;;;19.96;49.42;99097.14;532596;1090;116399;-58
2021/08/17 12:28:02;;;;;;;2.87;1.90;;;;;;;19.68;49.20;99089.50;532612;1088;116997;-58
2021/08/17 12:38:19;;;;;;;3.80;1.80;;;;;;;19.03;49.51;99105.36;530351;1089;117520;-60
2021/08/17 12:48:26;;;;;;;3.27;1.87;;;;;;;18.48;50.18;99104.92;519457;1088;116776;-58
2021/08/17 12:58:33;;;;;;;1.87;1.67;;;;;;;18.09;51.08;99110.73;514100;1088;116612;-55
2021/08/17 13:08:40;;;;;;;2.90;1.80;;;;;;;18.38;51.75;99107.70;522004;1088;115928;-58
2021/08/17 13:18:46;;;;;;;1.95;1.80;;;;;;;18.93;51.17;99105.50;532549;1090;115926;-62
2021/08/17 13:28:53;;;;;;;3.38;1.90;;;;;;;19.24;50.08;99104.05;531816;1088;116992;-59
2021/08/17 13:39:00;;;;;;;2.73;1.67;;;;;;;19.11;49.56;99110.70;532519;1089;115959;-65
2021/08/17 13:49:07;;;;;;;3.07;1.90;;;;;;;18.96;49.99;99137.09;532528;1088;117265;-63
2021/08/17 13:59:13;;;;;;;3.37;1.60;;;;;;;18.55;50.67;99142.33;531855;1088;117321;-60
2021/08/17 14:09:20;;;;;;;3.53;1.73;;;;;;;18.12;51.30;99143.14;531881;1089;116511;-60
2021/08/17 14:19:26;;;;;;;6.10;1.83;;;;;;;18.25;51.70;99150.69;531682;1088;115921;-62
2021/08/17 14:29:33;;;;;;;4.43;2.43;;;;;;;18.45;51.46;99143.28;531400;1089;116454;-60
2021/08/17 14:39:41;;;;;;;2.40;1.70;;;;;;;18.82;51.38;99146.56;518897;1089;116897;-59
2021/08/17 14:49:47;;;;;;;4.68;2.23;;;;;;;18.50;52.07;99150.78;531738;1088;117023;-59
2021/08/17 14:59:55;;;;;;;1.97;1.23;;;;;;;18.82;51.95;99156.34;532187;1089;117662;-64
2021/08/17 15:10:02;;;;;;;2.73;0.97;;;;;;;18.75;51.46;99172.94;532456;1089;116466;-63
2021/08/17 15:20:12;;;;;;;3.70;1.30;;;;;;;18.62;51.61;99173.42;513501;1089;10001047;-63
2021/08/17 15:30:20;;;;;;;3.63;1.60;;;;;;;18.20;51.69;99176.88;532265;1088;117076;-66
2021/08/17 15:40:26;;;;;;;1.60;1.50;;;;;;;18.12;52.06;99166.20;518643;1088;117029;-67
2021/08/17 15:50:33;;;;;;;5.80;1.60;;;;;;;17.97;52.78;99161.45;517884;1089;116446;-61
2021/08/17 16:00:39;;;;;;;2.73;1.80;;;;;;;17.92;53.00;99167.23;518346;1089;116095;-59
2021/08/17 16:10:46;;;;;;;2.47;1.80;;;;;;;17.87;53.25;99166.88;531856;1088;116401;-60
2021/08/17 16:20:54;;;;;;;6.03;1.53;;;;;;;17.53;53.71;99161.47;532545;1089;116428;-61
2021/08/17 16:31:01;;;;;;;3.37;1.90;;;;;;;17.30;53.81;99178.72;532591;1088;116492;-61
2021/08/17 16:41:07;;;;;;;7.40;3.30;;;;;;;17.12;53.60;99181.38;531827;1090;116507;-61
2021/08/17 16:51:14;;;;;;;10.50;2.90;;;;;;;16.77;54.36;99183.79;532323;1089;116384;-61
2021/08/17 17:01:21;;;;;;;2.77;1.53;;;;;;;16.40;55.08;99184.68;523098;1089;10001654;-60
2021/08/17 17:11:28;;;;;;;2.33;1.83;;;;;;;16.20;55.75;99187.39;531802;1090;116470;-60
2021/08/17 17:21:34;;;;;;;5.47;2.30;;;;;;;16.03;56.22;99194.27;527118;1089;117339;-61
2021/08/17 17:31:41;;;;;;;2.43;2.10;;;;;;;15.81;56.91;99192.77;528117;1089;117924;-59
2021/08/17 17:41:47;;;;;;;2.30;2.10;;;;;;;15.68;56.95;99196.55;528293;1090;116507;-60
2021/08/17 17:51:54;;;;;;;3.97;2.60;;;;;;;15.53;57.11;99200.62;532246;1089;117720;-60
2021/08/17 18:02:00;;;;;;;4.30;2.27;;;;;;;15.47;57.72;99207.30;531559;1089;117696;-60
2021/08/17 18:12:08;;;;;;;5.00;2.57;;;;;;;15.36;57.92;99197.67;518115;1089;10001481;-60
2021/08/17 18:22:15;;;;;;;7.55;1.88;;;;;;;15.34;58.38;99207.56;532516;1090;116764;-61
2021/08/17 18:32:21;;;;;;;4.03;2.73;;;;;;;15.30;59.01;99213.27;531718;1088;116719;-61
2021/08/17 18:42:28;;;;;;;2.63;2.40;;;;;;;15.23;59.14;99219.09;523145;1089;117180;-61
2021/08/17 18:52:35;;;;;;;3.10;2.43;;;;;;;15.17;59.68;99224.95;530023;1088;116188;-59
2021/08/17 19:02:42;;;;;;;9.80;2.85;;;;;;;15.11;60.13;99204.33;531536;1089;117354;-60
2021/08/17 19:12:49;;;;;;;3.57;2.43;;;;;;;15.07;60.04;99211.73;532420;1089;116126;-60
2021/08/17 19:22:56;;;;;;;7.25;2.83;;;;;;;15.07;60.08;99218.81;531768;1088;116633;-60
2021/08/17 19:33:02;;;;;;;2.43;2.20;;;;;;;15.08;60.09;99205.47;532489;1088;116742;-60
2021/08/17 19:43:10;;;;;;;6.00;2.93;;;;;;;15.08;60.29;99212.55;532478;1088;117215;-60
2021/08/17 19:53:17;;;;;;;4.48;2.78;;;;;;;15.06;60.44;99210.03;524521;1089;117263;-60
2021/08/17 20:03:25;;;;;;;2.73;2.53;;;;;;;14.95;60.68;99202.25;532533;1090;116723;-60
2021/08/17 20:13:33;;;;;;;4.33;2.37;;;;;;;14.91;60.91;99198.19;532519;1088;116668;-60
2021/08/17 20:23:48;;;;;;;3.23;2.58;;;;;;;14.85;60.82;99187.20;521167;1089;117154;-62
2021/08/17 20:33:58;;;;;;;6.98;3.28;;;;;;;14.73;60.95;99179.51;520913;1088;116578;-60
2021/08/17 20:44:08;;;;;;;3.53;2.40;;;;;;;14.41;60.82;99174.23;531676;1089;116892;-60
2021/08/17 20:54:15;;;;;;;5.10;2.50;;;;;;;14.11;61.42;99177.71;532410;1090;117149;-59
2021/08/17 21:04:22;;;;;;;3.87;2.63;;;;;;;13.86;61.59;99156.91;532544;1088;116463;-59
2021/08/17 21:14:28;;;;;;;5.20;3.20;;;;;;;13.65;62.31;99156.08;516444;1090;118370;-60
2021/08/17 21:24:35;;;;;;;4.37;2.47;;;;;;;13.50;62.64;99147.64;515558;1089;117140;-59
2021/08/17 21:34:43;;;;;;;5.67;2.90;;;;;;;13.28;63.00;99154.66;515657;1089;117355;-59
2021/08/17 21:44:49;;;;;;;;;;;;;;;13.06;63.61;99145.88;515202;1090;116671;-60
2021/08/17 21:54:56;;;;;;;7.13;2.70;;;;;;;12.81;63.90;99132.06;515341;1088;102759;-60
2021/08/17 22:05:03;;;;;;;3.68;2.60;;;;;;;12.57;64.41;99133.08;514149;1089;117504;-59
2021/08/17 22:15:12;;;;;;;4.40;3.10;;;;;;;12.40;64.58;99141.47;516080;1089;116978;-58
2021/08/17 22:25:19;;;;;;;3.03;2.53;;;;;;;12.27;65.24;99150.34;528283;1088;117274;-58
2021/08/17 22:35:26;;;;;;;4.50;2.73;;;;;;;12.18;65.46;99145.81;522285;1089;116920;-59
2021/08/17 22:45:33;;;;;;;5.37;2.73;;;;;;;12.07;65.61;99162.42;522971;1089;116549;-61
2021/08/17 22:55:40;;;;;;;7.27;3.67;;;;;;;11.98;65.92;99152.56;527265;1089;116406;-59
2021/08/17 23:05:47;;;;;;;4.83;3.47;;;;;;;11.90;65.86;99161.06;527342;1089;117330;-59
2021/08/17 23:15:53;;;;;;;3.43;2.40;;;;;;;11.86;66.15;99157.00;526153;1088;116739;-59
2021/08/17 23:26:03;;;;;;;7.33;2.80;;;;;;;11.87;65.90;99153.41;530837;1089;117000;-60
2021/08/17 23:36:10;;;;;;;4.67;2.70;;;;;;;11.89;65.63;99154.98;532563;1089;117316;-62
2021/08/17 23:46:17;;;;;;;5.57;2.67;;;;;;;11.80;65.42;99146.92;532550;1089;116883;-62
2021/08/17 23:56:24;;;;;;;5.23;3.43;;;;;;;11.76;65.26;99141.06;531828;1089;116674;-60
